createdAt,value
2018-08-22T00:02:45.911Z,6.7
2018-08-22T00:08:40.904Z,6.88
2018-08-22T00:14:35.969Z,7.06
2018-08-22T00:20:30.898Z,6.97
2018-08-22T00:26:25.892Z,7.44
2018-08-22T00:32:20.894Z,7.57
2018-08-22T00:38:15.909Z,7.04
2018-08-22T00:44:10.913Z,7.49
2018-08-22T00:50:05.897Z,7.63
2018-08-22T00:56:00.976Z,7.99
2018-08-22T01:01:55.940Z,7.79
2018-08-22T01:07:50.938Z,7.43
2018-08-22T01:13:45.913Z,7.77
2018-08-22T01:19:40.933Z,8.17
2018-08-22T01:25:35.999Z,7.43
2018-08-22T01:31:30.923Z,8.24
2018-08-22T01:37:25.996Z,7.85
2018-08-22T01:43:20.958Z,8.11
2018-08-22T01:49:15.967Z,8.27
2018-08-22T01:55:10.949Z,7.41
2018-08-22T02:01:05.959Z,7.66
2018-08-22T02:07:00.986Z,8.02
2018-08-22T02:12:56.022Z,7.84
2018-08-22T02:18:51.000Z,7.77
2018-08-22T02:24:45.999Z,8.32
2018-08-22T02:30:41.029Z,8.25
2018-08-22T02:36:36.028Z,8.76
2018-08-22T02:42:31.059Z,8.65
2018-08-22T02:48:26.015Z,8.53
2018-08-22T02:54:21.010Z,8.6
2018-08-22T03:00:16.020Z,8.99
2018-08-22T03:06:11.081Z,9.03
2018-08-22T03:12:06.039Z,8.82
2018-08-22T03:18:01.034Z,8.02
2018-08-22T03:23:56.045Z,9.12
2018-08-22T03:29:51.039Z,8.59
2018-08-22T03:35:46.040Z,9.1
2018-08-22T03:41:41.112Z,8.37
2018-08-22T03:47:36.037Z,8.93
2018-08-22T03:53:31.163Z,8.9
2018-08-22T03:59:26.087Z,8.55
2018-08-22T04:05:21.105Z,9.02
2018-08-22T04:11:16.109Z,8.99
2018-08-22T04:17:11.092Z,9
2018-08-22T04:23:06.061Z,9.39
2018-08-22T04:29:01.081Z,8.37
2018-08-22T04:34:56.088Z,8.55
2018-08-22T04:40:51.095Z,8.81
2018-08-22T04:46:46.137Z,8.44
2018-08-22T04:52:41.163Z,8.83
2018-08-22T04:58:36.101Z,8.98
2018-08-22T05:04:31.120Z,8.94
2018-08-22T05:10:26.127Z,8.4
2018-08-22T05:16:21.117Z,8.92
2018-08-22T05:22:16.159Z,9.22
2018-08-22T05:28:11.154Z,9.21
2018-08-22T05:34:06.105Z,9.56
2018-08-22T05:40:01.159Z,8.87
2018-08-22T05:45:56.144Z,9.28
2018-08-22T05:51:51.162Z,8.96
2018-08-22T05:57:46.165Z,8.86
2018-08-22T06:03:41.174Z,9.35
2018-08-22T06:09:36.187Z,9.44
2018-08-22T06:15:31.174Z,9.66
2018-08-22T06:21:26.247Z,9.52
2018-08-22T06:27:21.196Z,9.35
2018-08-22T06:33:16.182Z,9.67
2018-08-22T06:39:11.186Z,9.6
2018-08-22T06:45:06.238Z,10.59
2018-08-22T06:51:01.194Z,9.69
2018-08-22T06:56:56.255Z,9.71
2018-08-22T07:02:51.231Z,9.6
2018-08-22T07:08:46.234Z,9.15
2018-08-22T07:14:41.202Z,9.63
2018-08-22T07:20:36.237Z,9.48
2018-08-22T07:26:31.208Z,9
2018-08-22T07:32:26.227Z,9.47
2018-08-22T07:38:21.274Z,9.8
2018-08-22T07:44:16.228Z,9.37
2018-08-22T07:50:11.307Z,9.36
2018-08-22T07:56:06.244Z,9.12
2018-08-22T08:02:01.400Z,8.39
2018-08-22T08:07:56.278Z,8.61
2018-08-22T08:13:51.318Z,7.76
2018-08-22T08:19:46.265Z,7.86
2018-08-22T08:25:41.322Z,7.74
2018-08-22T08:31:36.325Z,7.92
2018-08-22T08:37:31.342Z,7.37
2018-08-22T08:43:26.398Z,5.72
2018-08-22T08:49:21.329Z,5.59
2018-08-22T08:55:16.293Z,4.94
2018-08-22T09:01:11.332Z,4.86
2018-08-22T09:07:06.341Z,4.43
2018-08-22T09:13:01.315Z,4.88
2018-08-22T09:18:56.297Z,4.37
2018-08-22T09:24:51.336Z,4.12
2018-08-22T09:30:46.381Z,4.56
2018-08-22T09:36:41.403Z,4.47
2018-08-22T09:42:36.333Z,4.05
2018-08-22T09:48:31.357Z,4.16
2018-08-22T09:54:26.349Z,4.19
2018-08-22T10:00:21.391Z,3.65
2018-08-22T10:06:16.397Z,3.83
2018-08-22T10:12:11.418Z,3.66
2018-08-22T10:18:07.138Z,3.95
2018-08-22T10:24:01.387Z,3.69
2018-08-22T10:29:56.388Z,4.37
2018-08-22T10:35:51.535Z,3.59
2018-08-22T10:41:46.397Z,3.64
2018-08-22T10:47:41.468Z,3.89
2018-08-22T10:53:36.383Z,3.56
2018-08-22T10:59:31.419Z,3.69
2018-08-22T11:05:26.428Z,3.5
2018-08-22T11:11:21.459Z,3.78
2018-08-22T11:17:16.473Z,3.67
2018-08-22T11:23:11.493Z,3.56
2018-08-22T11:29:06.413Z,3.26
2018-08-22T11:35:01.450Z,3.54
2018-08-22T11:40:56.474Z,3.32
2018-08-22T11:46:51.588Z,3.57
2018-08-22T11:52:46.446Z,3.42
2018-08-22T11:58:41.508Z,3.36
2018-08-22T12:04:36.471Z,3.04
2018-08-22T12:10:31.516Z,2.87
2018-08-22T12:16:26.562Z,2.93
2018-08-22T12:22:21.491Z,3.23
2018-08-22T12:28:16.482Z,3.72
2018-08-22T12:34:11.504Z,4.6
2018-08-22T12:40:06.538Z,4.34
2018-08-22T12:46:01.538Z,4.44
2018-08-22T12:51:56.502Z,4.73
2018-08-22T12:57:51.517Z,4.66
2018-08-22T13:03:46.533Z,5.16
2018-08-22T13:09:41.566Z,5.15
2018-08-22T13:15:36.535Z,5.42
2018-08-22T13:21:31.714Z,5.47
2018-08-22T13:27:26.553Z,6.13
2018-08-22T13:33:21.540Z,5.88
2018-08-22T13:39:16.613Z,6.02
2018-08-22T13:45:11.615Z,6.5
2018-08-22T13:51:06.570Z,6.65
2018-08-22T13:57:01.567Z,6.08
2018-08-22T14:02:56.601Z,7.24
2018-08-22T14:08:51.645Z,7.33
2018-08-22T14:15:54.625Z,7.81
2018-08-22T14:21:49.590Z,6.93
2018-08-22T14:27:44.580Z,7.18
2018-08-22T14:33:39.688Z,5.73
2018-08-22T14:39:34.604Z,6.36
2018-08-22T14:45:29.597Z,7.07
2018-08-22T14:51:24.626Z,7.72
2018-08-22T14:57:19.619Z,7.67
2018-08-22T15:03:15.094Z,8.22
2018-08-22T15:09:09.644Z,7.25
2018-08-22T15:15:04.631Z,8.1
2018-08-22T15:20:59.647Z,8.57
2018-08-22T15:26:54.639Z,8.38
2018-08-22T15:32:49.670Z,8.95
2018-08-22T15:38:44.657Z,8.73
2018-08-22T15:44:39.698Z,9.21
2018-08-22T15:50:34.675Z,9.04
2018-08-22T15:56:29.654Z,9.36
2018-08-22T16:02:24.688Z,8.31
2018-08-22T16:08:19.732Z,8.49
2018-08-22T16:14:14.669Z,8.2
2018-08-22T16:20:09.696Z,8.36
2018-08-22T16:26:04.713Z,8.51
2018-08-22T16:31:59.682Z,8.41
2018-08-22T16:37:54.683Z,9.63
2018-08-22T16:43:49.713Z,9.18
2018-08-22T16:49:44.697Z,9.4
2018-08-22T16:55:39.685Z,8.96
2018-08-22T17:01:34.734Z,9.41
2018-08-22T17:07:29.741Z,8.64
2018-08-22T17:13:24.725Z,9.47
2018-08-22T17:19:21.622Z,8.82
2018-08-22T17:25:14.749Z,8.71
2018-08-22T17:31:09.738Z,8.68
2018-08-22T17:37:04.740Z,9.07
2018-08-22T17:42:59.746Z,10.96
2018-08-22T17:48:54.763Z,9.94
2018-08-22T17:54:49.758Z,9.82
2018-08-22T18:00:44.769Z,9.71
2018-08-22T18:06:39.762Z,10.67
2018-08-22T18:12:34.804Z,22.7
2018-08-22T18:18:29.778Z,10.35
2018-08-22T18:24:24.785Z,10.14
2018-08-22T18:30:19.807Z,10.12
2018-08-22T18:36:14.946Z,10.2
2018-08-22T18:42:09.802Z,10.66
2018-08-22T18:48:04.779Z,9.74
2018-08-22T18:53:59.798Z,10.08
2018-08-22T18:59:54.825Z,9.76
2018-08-22T19:05:49.839Z,9.45
2018-08-22T19:11:44.832Z,11.51
2018-08-22T19:17:39.820Z,11.09
2018-08-22T19:23:34.818Z,11.56
2018-08-22T19:29:29.845Z,11.77
2018-08-22T19:35:24.851Z,11.13
2018-08-22T19:41:19.854Z,10.53
2018-08-22T19:47:14.847Z,11.18
2018-08-22T19:53:09.851Z,11.42
2018-08-22T19:59:04.871Z,11.75
2018-08-22T20:04:59.863Z,11.27
2018-08-22T20:10:54.898Z,11.47
2018-08-22T20:16:49.892Z,10.24
2018-08-22T20:22:44.920Z,10.23
2018-08-22T20:28:39.885Z,9.97
2018-08-22T20:34:34.872Z,10.63
2018-08-22T20:40:29.950Z,11.14
2018-08-22T20:46:24.909Z,15.03
2018-08-22T20:52:19.907Z,11.2
2018-08-22T20:58:14.920Z,12.05
2018-08-22T21:04:09.917Z,11.52
2018-08-22T21:10:04.903Z,12.55
2018-08-22T21:15:59.922Z,10.98
2018-08-22T21:21:54.934Z,12.58
2018-08-22T21:27:49.917Z,12.17
2018-08-22T21:33:44.976Z,11.09
2018-08-22T21:39:39.949Z,12.02
2018-08-22T21:45:35.004Z,12.2
2018-08-22T21:51:29.996Z,11.33
2018-08-22T21:57:25.010Z,11.37
2018-08-22T22:03:20.013Z,10.67
2018-08-22T22:09:14.976Z,11.02
2018-08-22T22:15:09.991Z,11.23
2018-08-22T22:21:04.999Z,11.2
2018-08-22T22:26:59.992Z,11.26
2018-08-22T22:32:55.012Z,12.09
2018-08-22T22:38:50.018Z,11.1
2018-08-22T22:44:44.992Z,11.51
2018-08-22T22:50:40.006Z,11.86
2018-08-22T22:56:34.990Z,11.85
2018-08-22T23:02:30.093Z,12.84
2018-08-22T23:08:25.043Z,11.22
2018-08-22T23:14:20.027Z,11.8
2018-08-22T23:20:15.044Z,12.4
2018-08-22T23:26:10.043Z,11.1
2018-08-22T23:32:05.065Z,11.8
2018-08-22T23:38:00.034Z,11.91
2018-08-22T23:43:55.051Z,11.58
2018-08-22T23:49:50.067Z,11.93
2018-08-22T23:55:45.052Z,11.83
